sensor_id;sensor_type;location;lat;lon;timestamp;P1;durP1;ratioP1;P2;durP2;ratioP2
20846;SDS011;10584;50.854;12.902;2022-12-13T00:04:27;11.17;;;4.73;;
20846;SDS011;10584;50.854;12.902;2022-12-13T00:09:31;11.47;;;4.60;;
20846;SDS011;10584;50.854;12.902;2022-12-13T00:14:34;12.97;;;4.77;;
20846;SDS011;10584;50.854;12.902;2022-12-13T00:19:37;12.50;;;4.70;;
20846;SDS011;10584;50.854;12.902;2022-12-13T00:24:41;11.60;;;5.27;;
20846;SDS011;10584;50.854;12.902;2022-12-13T00:29:46;17.03;;;5.67;;
20846;SDS011;10584;50.854;12.902;2022-12-13T00:34:49;13.17;;;5.73;;
20846;SDS011;10584;50.854;12.902;2022-12-13T00:39:52;14.77;;;5.40;;
20846;SDS011;10584;50.854;12.902;2022-12-13T00:44:55;16.00;;;6.60;;
20846;SDS011;10584;50.854;12.902;2022-12-13T00:49:59;16.53;;;6.67;;
20846;SDS011;10584;50.854;12.902;2022-12-13T00:55:02;18.57;;;6.80;;
20846;SDS011;10584;50.854;12.902;2022-12-13T01:00:06;19.10;;;7.27;;
20846;SDS011;10584;50.854;12.902;2022-12-13T01:05:10;19.17;;;7.67;;
20846;SDS011;10584;50.854;12.902;2022-12-13T01:10:14;20.57;;;8.80;;
20846;SDS011;10584;50.854;12.902;2022-12-13T01:15:17;19.53;;;8.63;;
20846;SDS011;10584;50.854;12.902;2022-12-13T01:20:20;25.67;;;9.87;;
20846;SDS011;10584;50.854;12.902;2022-12-13T01:25:23;23.63;;;8.67;;
20846;SDS011;10584;50.854;12.902;2022-12-13T01:30:26;22.17;;;8.80;;
20846;SDS011;10584;50.854;12.902;2022-12-13T01:35:32;26.23;;;9.23;;
20846;SDS011;10584;50.854;12.902;2022-12-13T01:40:42;28.07;;;9.17;;
20846;SDS011;10584;50.854;12.902;2022-12-13T01:45:48;22.40;;;8.53;;
20846;SDS011;10584;50.854;12.902;2022-12-13T01:50:52;24.43;;;9.43;;
20846;SDS011;10584;50.854;12.902;2022-12-13T01:56:09;23.27;;;8.90;;
20846;SDS011;10584;50.854;12.902;2022-12-13T02:01:16;20.90;;;8.60;;
20846;SDS011;10584;50.854;12.902;2022-12-13T02:06:42;24.03;;;8.87;;
20846;SDS011;10584;50.854;12.902;2022-12-13T02:11:45;25.60;;;9.57;;
20846;SDS011;10584;50.854;12.902;2022-12-13T02:27:33;23.80;;;9.37;;
20846;SDS011;10584;50.854;12.902;2022-12-13T02:38:42;23.17;;;8.80;;
20846;SDS011;10584;50.854;12.902;2022-12-13T02:43:51;27.73;;;9.23;;
20846;SDS011;10584;50.854;12.902;2022-12-13T02:49:22;23.37;;;8.93;;
20846;SDS011;10584;50.854;12.902;2022-12-13T02:54:29;27.10;;;8.90;;
20846;SDS011;10584;50.854;12.902;2022-12-13T02:59:33;24.73;;;9.53;;
20846;SDS011;10584;50.854;12.902;2022-12-13T03:10:24;25.00;;;9.50;;
20846;SDS011;10584;50.854;12.902;2022-12-13T03:20:45;22.33;;;9.20;;
20846;SDS011;10584;50.854;12.902;2022-12-13T03:26:10;27.77;;;9.47;;
20846;SDS011;10584;50.854;12.902;2022-12-13T03:31:18;24.07;;;9.20;;
20846;SDS011;10584;50.854;12.902;2022-12-13T03:36:21;23.23;;;8.37;;
20846;SDS011;10584;50.854;12.902;2022-12-13T03:41:25;21.30;;;9.03;;
20846;SDS011;10584;50.854;12.902;2022-12-13T03:46:33;21.63;;;8.40;;
20846;SDS011;10584;50.854;12.902;2022-12-13T03:51:36;24.27;;;8.70;;
20846;SDS011;10584;50.854;12.902;2022-12-13T03:56:39;22.97;;;8.57;;
20846;SDS011;10584;50.854;12.902;2022-12-13T04:01:42;22.47;;;8.33;;
20846;SDS011;10584;50.854;12.902;2022-12-13T04:06:45;22.77;;;9.00;;
20846;SDS011;10584;50.854;12.902;2022-12-13T04:11:48;22.57;;;8.10;;
20846;SDS011;10584;50.854;12.902;2022-12-13T04:17:09;17.10;;;6.77;;
20846;SDS011;10584;50.854;12.902;2022-12-13T04:22:12;14.60;;;5.53;;
20846;SDS011;10584;50.854;12.902;2022-12-13T04:27:22;20.30;;;8.00;;
20846;SDS011;10584;50.854;12.902;2022-12-13T04:32:25;22.03;;;7.47;;
20846;SDS011;10584;50.854;12.902;2022-12-13T04:37:28;21.40;;;8.10;;
20846;SDS011;10584;50.854;12.902;2022-12-13T04:42:31;18.47;;;6.87;;
20846;SDS011;10584;50.854;12.902;2022-12-13T04:47:34;20.40;;;7.93;;
20846;SDS011;10584;50.854;12.902;2022-12-13T04:52:37;19.27;;;7.13;;
20846;SDS011;10584;50.854;12.902;2022-12-13T04:57:40;16.10;;;7.10;;
20846;SDS011;10584;50.854;12.902;2022-12-13T05:02:43;20.27;;;6.93;;
20846;SDS011;10584;50.854;12.902;2022-12-13T05:07:47;21.63;;;7.77;;
20846;SDS011;10584;50.854;12.902;2022-12-13T05:12:50;14.17;;;6.53;;
20846;SDS011;10584;50.854;12.902;2022-12-13T05:17:53;17.93;;;6.70;;
20846;SDS011;10584;50.854;12.902;2022-12-13T05:22:56;19.20;;;7.40;;
20846;SDS011;10584;50.854;12.902;2022-12-13T05:28:00;16.07;;;6.50;;
20846;SDS011;10584;50.854;12.902;2022-12-13T05:33:23;19.33;;;7.00;;
20846;SDS011;10584;50.854;12.902;2022-12-13T05:38:26;17.40;;;6.53;;
20846;SDS011;10584;50.854;12.902;2022-12-13T05:43:30;16.03;;;6.73;;
20846;SDS011;10584;50.854;12.902;2022-12-13T05:48:44;19.70;;;7.43;;
20846;SDS011;10584;50.854;12.902;2022-12-13T05:53:47;17.30;;;6.57;;
20846;SDS011;10584;50.854;12.902;2022-12-13T05:58:54;16.10;;;6.60;;
20846;SDS011;10584;50.854;12.902;2022-12-13T06:03:57;18.73;;;6.90;;
20846;SDS011;10584;50.854;12.902;2022-12-13T06:09:00;15.10;;;6.17;;
20846;SDS011;10584;50.854;12.902;2022-12-13T06:14:04;15.53;;;6.33;;
20846;SDS011;10584;50.854;12.902;2022-12-13T06:19:23;15.43;;;6.13;;
20846;SDS011;10584;50.854;12.902;2022-12-13T06:24:26;15.57;;;6.30;;
20846;SDS011;10584;50.854;12.902;2022-12-13T06:29:29;16.20;;;6.27;;
20846;SDS011;10584;50.854;12.902;2022-12-13T06:34:33;17.23;;;6.40;;
20846;SDS011;10584;50.854;12.902;2022-12-13T06:39:36;18.77;;;7.07;;
20846;SDS011;10584;50.854;12.902;2022-12-13T06:44:40;19.63;;;6.53;;
20846;SDS011;10584;50.854;12.902;2022-12-13T06:49:44;17.87;;;6.40;;
20846;SDS011;10584;50.854;12.902;2022-12-13T06:54:47;17.23;;;6.43;;
20846;SDS011;10584;50.854;12.902;2022-12-13T06:59:52;17.50;;;6.40;;
20846;SDS011;10584;50.854;12.902;2022-12-13T07:04:55;18.40;;;6.70;;
20846;SDS011;10584;50.854;12.902;2022-12-13T07:09:58;16.77;;;6.90;;
20846;SDS011;10584;50.854;12.902;2022-12-13T07:15:01;14.70;;;5.67;;
20846;SDS011;10584;50.854;12.902;2022-12-13T07:20:05;16.73;;;5.90;;
20846;SDS011;10584;50.854;12.902;2022-12-13T07:25:09;12.80;;;5.37;;
20846;SDS011;10584;50.854;12.902;2022-12-13T07:30:30;19.73;;;7.10;;
20846;SDS011;10584;50.854;12.902;2022-12-13T07:35:34;20.30;;;6.67;;
20846;SDS011;10584;50.854;12.902;2022-12-13T07:40:39;22.57;;;7.87;;
20846;SDS011;10584;50.854;12.902;2022-12-13T07:45:45;17.20;;;6.63;;
20846;SDS011;10584;50.854;12.902;2022-12-13T07:50:48;20.00;;;6.90;;
20846;SDS011;10584;50.854;12.902;2022-12-13T07:55:55;18.53;;;6.27;;
20846;SDS011;10584;50.854;12.902;2022-12-13T08:00:59;23.37;;;7.20;;
20846;SDS011;10584;50.854;12.902;2022-12-13T08:06:06;19.00;;;6.60;;
20846;SDS011;10584;50.854;12.902;2022-12-13T08:11:11;18.30;;;6.53;;
20846;SDS011;10584;50.854;12.902;2022-12-13T08:16:18;18.53;;;6.87;;
20846;SDS011;10584;50.854;12.902;2022-12-13T08:21:32;19.33;;;6.67;;
20846;SDS011;10584;50.854;12.902;2022-12-13T08:26:56;20.67;;;6.47;;
20846;SDS011;10584;50.854;12.902;2022-12-13T08:32:03;19.40;;;7.07;;
20846;SDS011;10584;50.854;12.902;2022-12-13T08:37:08;14.47;;;6.57;;
20846;SDS011;10584;50.854;12.902;2022-12-13T08:42:12;18.23;;;6.53;;
20846;SDS011;10584;50.854;12.902;2022-12-13T08:47:21;21.93;;;6.93;;
20846;SDS011;10584;50.854;12.902;2022-12-13T08:52:27;15.93;;;6.27;;
20846;SDS011;10584;50.854;12.902;2022-12-13T08:57:30;16.90;;;6.17;;
20846;SDS011;10584;50.854;12.902;2022-12-13T09:02:36;17.63;;;6.90;;
20846;SDS011;10584;50.854;12.902;2022-12-13T09:07:40;16.80;;;6.37;;
20846;SDS011;10584;50.854;12.902;2022-12-13T09:12:44;20.30;;;6.53;;
20846;SDS011;10584;50.854;12.902;2022-12-13T09:17:47;18.73;;;6.33;;
20846;SDS011;10584;50.854;12.902;2022-12-13T09:22:53;17.47;;;6.60;;
20846;SDS011;10584;50.854;12.902;2022-12-13T09:28:06;20.30;;;7.33;;
20846;SDS011;10584;50.854;12.902;2022-12-13T09:33:10;18.60;;;6.50;;
20846;SDS011;10584;50.854;12.902;2022-12-13T09:38:32;20.03;;;7.23;;
20846;SDS011;10584;50.854;12.902;2022-12-13T09:43:36;18.80;;;7.43;;
20846;SDS011;10584;50.854;12.902;2022-12-13T09:48:43;14.83;;;6.20;;
20846;SDS011;10584;50.854;12.902;2022-12-13T09:53:49;19.97;;;6.97;;
20846;SDS011;10584;50.854;12.902;2022-12-13T09:58:54;18.10;;;7.30;;
20846;SDS011;10584;50.854;12.902;2022-12-13T10:03:58;16.93;;;7.73;;
20846;SDS011;10584;50.854;12.902;2022-12-13T10:09:02;20.00;;;8.63;;
20846;SDS011;10584;50.854;12.902;2022-12-13T10:14:13;26.47;;;9.87;;
20846;SDS011;10584;50.854;12.902;2022-12-13T10:24:53;17.47;;;7.00;;
20846;SDS011;10584;50.854;12.902;2022-12-13T10:29:59;19.37;;;7.77;;
20846;SDS011;10584;50.854;12.902;2022-12-13T10:35:36;19.07;;;8.07;;
20846;SDS011;10584;50.854;12.902;2022-12-13T10:40:41;23.77;;;9.77;;
20846;SDS011;10584;50.854;12.902;2022-12-13T10:51:09;14.97;;;6.40;;
20846;SDS011;10584;50.854;12.902;2022-12-13T10:56:17;17.70;;;6.93;;
20846;SDS011;10584;50.854;12.902;2022-12-13T11:01:24;14.20;;;6.23;;
20846;SDS011;10584;50.854;12.902;2022-12-13T11:06:41;14.00;;;6.70;;
20846;SDS011;10584;50.854;12.902;2022-12-13T11:11:46;15.50;;;6.67;;
20846;SDS011;10584;50.854;12.902;2022-12-13T11:17:04;14.67;;;6.07;;
20846;SDS011;10584;50.854;12.902;2022-12-13T11:22:48;14.67;;;6.43;;
20846;SDS011;10584;50.854;12.902;2022-12-13T11:27:53;16.90;;;7.50;;
20846;SDS011;10584;50.854;12.902;2022-12-13T11:44:22;15.23;;;7.23;;
20846;SDS011;10584;50.854;12.902;2022-12-13T11:49:40;13.50;;;6.37;;
20846;SDS011;10584;50.854;12.902;2022-12-13T11:54:51;17.53;;;7.37;;
20846;SDS011;10584;50.854;12.902;2022-12-13T12:05:40;12.83;;;5.93;;
20846;SDS011;10584;50.854;12.902;2022-12-13T12:16:26;14.00;;;6.63;;
20846;SDS011;10584;50.854;12.902;2022-12-13T12:37:56;16.80;;;7.50;;
20846;SDS011;10584;50.854;12.902;2022-12-13T12:43:20;19.03;;;7.87;;
20846;SDS011;10584;50.854;12.902;2022-12-13T13:05:05;17.40;;;8.20;;
20846;SDS011;10584;50.854;12.902;2022-12-13T13:10:19;22.23;;;8.80;;
20846;SDS011;10584;50.854;12.902;2022-12-13T13:20:33;19.13;;;8.17;;
20846;SDS011;10584;50.854;12.902;2022-12-13T13:25:37;19.27;;;8.80;;
20846;SDS011;10584;50.854;12.902;2022-12-13T13:31:04;17.47;;;7.87;;
20846;SDS011;10584;50.854;12.902;2022-12-13T13:47:10;25.60;;;9.17;;
20846;SDS011;10584;50.854;12.902;2022-12-13T14:30:02;48.20;;;18.73;;
20846;SDS011;10584;50.854;12.902;2022-12-13T14:35:28;33.97;;;13.33;;
20846;SDS011;10584;50.854;12.902;2022-12-13T14:40:34;37.70;;;13.47;;
20846;SDS011;10584;50.854;12.902;2022-12-13T14:45:50;32.23;;;11.63;;
20846;SDS011;10584;50.854;12.902;2022-12-13T14:50:58;38.67;;;13.97;;
20846;SDS011;10584;50.854;12.902;2022-12-13T14:56:03;35.93;;;12.63;;
20846;SDS011;10584;50.854;12.902;2022-12-13T15:06:35;35.60;;;15.17;;
20846;SDS011;10584;50.854;12.902;2022-12-13T15:11:39;39.37;;;15.53;;
20846;SDS011;10584;50.854;12.902;2022-12-13T15:16:49;30.37;;;11.80;;
20846;SDS011;10584;50.854;12.902;2022-12-13T15:22:11;32.17;;;12.90;;
20846;SDS011;10584;50.854;12.902;2022-12-13T15:27:19;27.40;;;11.77;;
20846;SDS011;10584;50.854;12.902;2022-12-13T15:32:25;25.37;;;10.63;;
20846;SDS011;10584;50.854;12.902;2022-12-13T15:37:28;29.47;;;10.97;;
20846;SDS011;10584;50.854;12.902;2022-12-13T15:42:34;44.57;;;13.33;;
20846;SDS011;10584;50.854;12.902;2022-12-13T15:47:44;36.10;;;12.17;;
20846;SDS011;10584;50.854;12.902;2022-12-13T15:52:48;37.23;;;12.63;;
20846;SDS011;10584;50.854;12.902;2022-12-13T15:58:02;40.23;;;12.27;;
20846;SDS011;10584;50.854;12.902;2022-12-13T16:03:37;43.10;;;14.37;;
20846;SDS011;10584;50.854;12.902;2022-12-13T16:08:43;32.97;;;12.87;;
20846;SDS011;10584;50.854;12.902;2022-12-13T16:13:50;32.93;;;12.03;;
20846;SDS011;10584;50.854;12.902;2022-12-13T16:18:59;27.80;;;10.63;;
20846;SDS011;10584;50.854;12.902;2022-12-13T16:24:02;31.90;;;10.40;;
20846;SDS011;10584;50.854;12.902;2022-12-13T16:29:07;38.77;;;12.60;;
20846;SDS011;10584;50.854;12.902;2022-12-13T16:34:17;30.53;;;11.50;;
20846;SDS011;10584;50.854;12.902;2022-12-13T16:39:26;28.60;;;8.70;;
20846;SDS011;10584;50.854;12.902;2022-12-13T16:44:33;25.53;;;9.30;;
20846;SDS011;10584;50.854;12.902;2022-12-13T16:49:38;28.27;;;9.97;;
20846;SDS011;10584;50.854;12.902;2022-12-13T16:54:41;29.00;;;9.53;;
20846;SDS011;10584;50.854;12.902;2022-12-13T16:59:44;36.97;;;10.40;;
20846;SDS011;10584;50.854;12.902;2022-12-13T17:04:47;24.77;;;8.23;;
20846;SDS011;10584;50.854;12.902;2022-12-13T17:09:50;30.20;;;9.67;;
20846;SDS011;10584;50.854;12.902;2022-12-13T17:14:53;27.73;;;9.13;;
20846;SDS011;10584;50.854;12.902;2022-12-13T17:19:56;27.23;;;9.33;;
20846;SDS011;10584;50.854;12.902;2022-12-13T17:25:00;25.80;;;9.53;;
20846;SDS011;10584;50.854;12.902;2022-12-13T17:30:04;25.70;;;11.00;;
20846;SDS011;10584;50.854;12.902;2022-12-13T17:35:09;29.70;;;11.87;;
20846;SDS011;10584;50.854;12.902;2022-12-13T17:40:19;37.73;;;12.57;;
20846;SDS011;10584;50.854;12.902;2022-12-13T17:45:22;40.80;;;11.87;;
20846;SDS011;10584;50.854;12.902;2022-12-13T17:50:27;28.57;;;11.63;;
20846;SDS011;10584;50.854;12.902;2022-12-13T17:55:31;37.60;;;12.53;;
20846;SDS011;10584;50.854;12.902;2022-12-13T18:00:35;37.30;;;11.80;;
20846;SDS011;10584;50.854;12.902;2022-12-13T18:05:38;29.40;;;11.77;;
20846;SDS011;10584;50.854;12.902;2022-12-13T18:10:41;30.10;;;12.10;;
20846;SDS011;10584;50.854;12.902;2022-12-13T18:16:13;37.77;;;12.90;;
20846;SDS011;10584;50.854;12.902;2022-12-13T18:21:17;34.87;;;12.40;;
20846;SDS011;10584;50.854;12.902;2022-12-13T18:26:20;45.23;;;13.80;;
20846;SDS011;10584;50.854;12.902;2022-12-13T18:31:25;43.53;;;13.27;;
20846;SDS011;10584;50.854;12.902;2022-12-13T18:36:29;48.03;;;16.03;;
20846;SDS011;10584;50.854;12.902;2022-12-13T18:41:33;44.87;;;16.97;;
20846;SDS011;10584;50.854;12.902;2022-12-13T18:46:36;48.03;;;15.80;;
20846;SDS011;10584;50.854;12.902;2022-12-13T18:51:46;41.67;;;13.53;;
20846;SDS011;10584;50.854;12.902;2022-12-13T18:56:49;40.00;;;13.57;;
20846;SDS011;10584;50.854;12.902;2022-12-13T19:01:52;45.07;;;15.53;;
20846;SDS011;10584;50.854;12.902;2022-12-13T19:06:55;46.13;;;14.80;;
20846;SDS011;10584;50.854;12.902;2022-12-13T19:11:59;44.50;;;15.43;;
20846;SDS011;10584;50.854;12.902;2022-12-13T19:17:02;37.17;;;14.33;;
20846;SDS011;10584;50.854;12.902;2022-12-13T19:22:05;44.33;;;15.37;;
20846;SDS011;10584;50.854;12.902;2022-12-13T19:27:10;46.30;;;15.63;;
20846;SDS011;10584;50.854;12.902;2022-12-13T19:32:13;40.40;;;14.37;;
20846;SDS011;10584;50.854;12.902;2022-12-13T19:37:19;46.80;;;16.50;;
20846;SDS011;10584;50.854;12.902;2022-12-13T19:42:22;32.77;;;10.00;;
20846;SDS011;10584;50.854;12.902;2022-12-13T19:47:25;35.57;;;10.47;;
20846;SDS011;10584;50.854;12.902;2022-12-13T19:52:28;30.50;;;9.30;;
20846;SDS011;10584;50.854;12.902;2022-12-13T19:57:31;26.57;;;10.17;;
20846;SDS011;10584;50.854;12.902;2022-12-13T20:02:34;33.70;;;11.70;;
20846;SDS011;10584;50.854;12.902;2022-12-13T20:07:37;34.90;;;12.83;;
20846;SDS011;10584;50.854;12.902;2022-12-13T20:12:41;25.17;;;9.93;;
20846;SDS011;10584;50.854;12.902;2022-12-13T20:17:44;16.13;;;5.97;;
20846;SDS011;10584;50.854;12.902;2022-12-13T20:22:47;19.93;;;7.57;;
20846;SDS011;10584;50.854;12.902;2022-12-13T20:27:50;25.50;;;9.30;;
20846;SDS011;10584;50.854;12.902;2022-12-13T20:32:53;25.43;;;7.30;;
20846;SDS011;10584;50.854;12.902;2022-12-13T20:37:56;19.50;;;6.67;;
20846;SDS011;10584;50.854;12.902;2022-12-13T20:43:00;18.20;;;7.27;;
20846;SDS011;10584;50.854;12.902;2022-12-13T20:48:03;26.23;;;8.63;;
20846;SDS011;10584;50.854;12.902;2022-12-13T20:53:06;16.47;;;6.50;;
20846;SDS011;10584;50.854;12.902;2022-12-13T20:58:09;22.13;;;7.63;;
20846;SDS011;10584;50.854;12.902;2022-12-13T21:03:12;24.00;;;8.13;;
20846;SDS011;10584;50.854;12.902;2022-12-13T21:08:15;20.70;;;7.30;;
20846;SDS011;10584;50.854;12.902;2022-12-13T21:13:37;21.27;;;6.63;;
20846;SDS011;10584;50.854;12.902;2022-12-13T21:18:41;24.73;;;8.20;;
20846;SDS011;10584;50.854;12.902;2022-12-13T21:23:44;17.40;;;6.33;;
20846;SDS011;10584;50.854;12.902;2022-12-13T21:28:51;26.70;;;8.87;;
20846;SDS011;10584;50.854;12.902;2022-12-13T21:33:55;21.43;;;7.50;;
20846;SDS011;10584;50.854;12.902;2022-12-13T21:39:03;23.47;;;8.30;;
20846;SDS011;10584;50.854;12.902;2022-12-13T21:44:14;22.53;;;7.33;;
20846;SDS011;10584;50.854;12.902;2022-12-13T21:49:18;20.27;;;7.30;;
20846;SDS011;10584;50.854;12.902;2022-12-13T21:54:24;22.70;;;8.20;;
20846;SDS011;10584;50.854;12.902;2022-12-13T21:59:27;21.93;;;8.43;;
20846;SDS011;10584;50.854;12.902;2022-12-13T22:04:32;25.53;;;9.37;;
20846;SDS011;10584;50.854;12.902;2022-12-13T22:09:36;21.50;;;7.00;;
20846;SDS011;10584;50.854;12.902;2022-12-13T22:14:39;24.40;;;8.23;;
20846;SDS011;10584;50.854;12.902;2022-12-13T22:19:42;20.13;;;6.17;;
20846;SDS011;10584;50.854;12.902;2022-12-13T22:24:49;17.93;;;6.80;;
20846;SDS011;10584;50.854;12.902;2022-12-13T22:29:55;22.43;;;7.40;;
20846;SDS011;10584;50.854;12.902;2022-12-13T22:34:59;17.93;;;6.50;;
20846;SDS011;10584;50.854;12.902;2022-12-13T22:40:03;22.70;;;7.13;;
20846;SDS011;10584;50.854;12.902;2022-12-13T22:45:07;23.77;;;7.97;;
20846;SDS011;10584;50.854;12.902;2022-12-13T22:50:10;21.60;;;7.30;;
20846;SDS011;10584;50.854;12.902;2022-12-13T22:55:13;21.77;;;7.77;;
20846;SDS011;10584;50.854;12.902;2022-12-13T23:00:17;24.80;;;7.90;;
20846;SDS011;10584;50.854;12.902;2022-12-13T23:05:20;26.10;;;8.53;;
20846;SDS011;10584;50.854;12.902;2022-12-13T23:10:26;15.70;;;6.40;;
20846;SDS011;10584;50.854;12.902;2022-12-13T23:15:47;16.07;;;5.97;;
20846;SDS011;10584;50.854;12.902;2022-12-13T23:20:50;26.00;;;8.40;;
20846;SDS011;10584;50.854;12.902;2022-12-13T23:25:53;19.93;;;6.53;;
20846;SDS011;10584;50.854;12.902;2022-12-13T23:30:59;21.80;;;7.13;;
20846;SDS011;10584;50.854;12.902;2022-12-13T23:36:04;14.53;;;5.20;;
20846;SDS011;10584;50.854;12.902;2022-12-13T23:46:16;20.33;;;7.10;;
20846;SDS011;10584;50.854;12.902;2022-12-13T23:51:20;15.77;;;5.60;;
20846;SDS011;10584;50.854;12.902;2022-12-13T23:56:23;18.40;;;6.37;;
